sensor_id;sensor_type;location;lat;lon;timestamp;pressure;altitude;pressure_sealevel;temperature;humidity
61018;BME280;48171;51.550;5.434;2023-03-12T00:00:16;101172.09;;;2.04;88.98
61018;BME280;48171;51.550;5.434;2023-03-12T00:02:41;101169.53;;;2.05;89.41
61018;BME280;48171;51.550;5.434;2023-03-12T00:05:07;101164.25;;;2.04;89.24
61018;BME280;48171;51.550;5.434;2023-03-12T00:07:33;101159.16;;;2.07;88.64
61018;BME280;48171;51.550;5.434;2023-03-12T00:10:00;101164.44;;;2.08;89.01
61018;BME280;48171;51.550;5.434;2023-03-12T00:12:26;101156.63;;;2.08;89.29
61018;BME280;48171;51.550;5.434;2023-03-12T00:14:51;101154.00;;;2.08;89.35
61018;BME280;48171;51.550;5.434;2023-03-12T00:17:16;101157.56;;;2.10;90.06
61018;BME280;48171;51.550;5.434;2023-03-12T00:19:41;101159.25;;;2.10;89.85
61018;BME280;48171;51.550;5.434;2023-03-12T00:22:07;101154.00;;;2.08;90.30
61018;BME280;48171;51.550;5.434;2023-03-12T00:24:32;101146.19;;;2.08;90.69
61018;BME280;48171;51.550;5.434;2023-03-12T00:26:57;101139.25;;;2.09;90.42
61018;BME280;48171;51.550;5.434;2023-03-12T00:29:23;101129.69;;;2.09;90.18
61018;BME280;48171;51.550;5.434;2023-03-12T00:31:48;101124.44;;;2.08;90.26
61018;BME280;48171;51.550;5.434;2023-03-12T00:34:15;101116.59;;;2.06;90.15
61018;BME280;48171;51.550;5.434;2023-03-12T00:36:40;101120.03;;;2.05;90.14
61018;BME280;48171;51.550;5.434;2023-03-12T00:39:06;101129.66;;;2.08;89.78
61018;BME280;48171;51.550;5.434;2023-03-12T00:41:31;101127.03;;;2.06;89.97
61018;BME280;48171;51.550;5.434;2023-03-12T00:43:57;101123.56;;;2.07;89.95
61018;BME280;48171;51.550;5.434;2023-03-12T00:46:23;101116.63;;;2.08;89.46
61018;BME280;48171;51.550;5.434;2023-03-12T00:48:48;101114.91;;;2.08;89.55
61018;BME280;48171;51.550;5.434;2023-03-12T00:51:13;101117.56;;;2.10;90.61
61018;BME280;48171;51.550;5.434;2023-03-12T00:53:39;101111.41;;;2.08;90.48
61018;BME280;48171;51.550;5.434;2023-03-12T00:56:05;101118.41;;;2.09;89.35
61018;BME280;48171;51.550;5.434;2023-03-12T00:58:31;101107.97;;;2.09;90.10
61018;BME280;48171;51.550;5.434;2023-03-12T01:00:56;101095.00;;;2.10;90.15
61018;BME280;48171;51.550;5.434;2023-03-12T01:03:21;101102.81;;;2.10;89.94
61018;BME280;48171;51.550;5.434;2023-03-12T01:05:47;101098.47;;;2.11;90.08
61018;BME280;48171;51.550;5.434;2023-03-12T01:08:18;101094.09;;;2.10;90.51
61018;BME280;48171;51.550;5.434;2023-03-12T01:10:43;101089.78;;;2.10;89.76
61018;BME280;48171;51.550;5.434;2023-03-12T01:13:08;101083.78;;;2.13;90.14
61018;BME280;48171;51.550;5.434;2023-03-12T01:15:34;101078.50;;;2.11;90.45
61018;BME280;48171;51.550;5.434;2023-03-12T01:17:59;101071.56;;;2.12;90.59
61018;BME280;48171;51.550;5.434;2023-03-12T01:20:24;101082.94;;;2.14;90.38
61018;BME280;48171;51.550;5.434;2023-03-12T01:22:50;101086.47;;;2.16;90.63
61018;BME280;48171;51.550;5.434;2023-03-12T01:25:15;101081.22;;;2.14;90.72
61018;BME280;48171;51.550;5.434;2023-03-12T01:27:40;101084.78;;;2.16;90.37
61018;BME280;48171;51.550;5.434;2023-03-12T01:30:06;101090.84;;;2.17;90.57
61018;BME280;48171;51.550;5.434;2023-03-12T01:32:32;101096.13;;;2.18;89.94
61018;BME280;48171;51.550;5.434;2023-03-12T01:34:58;101081.31;;;2.17;89.68
61018;BME280;48171;51.550;5.434;2023-03-12T01:37:24;101078.75;;;2.19;89.15
61018;BME280;48171;51.550;5.434;2023-03-12T01:39:50;101084.03;;;2.22;89.30
61018;BME280;48171;51.550;5.434;2023-03-12T01:42:15;101062.31;;;2.22;89.29
61018;BME280;48171;51.550;5.434;2023-03-12T01:44:52;101071.88;;;2.21;89.21
61018;BME280;48171;51.550;5.434;2023-03-12T01:47:17;101077.91;;;2.20;88.95
61018;BME280;48171;51.550;5.434;2023-03-12T01:49:44;101067.59;;;2.23;88.67
61018;BME280;48171;51.550;5.434;2023-03-12T01:52:13;101046.69;;;2.22;88.06
61018;BME280;48171;51.550;5.434;2023-03-12T01:54:41;101044.31;;;2.29;88.86
61018;BME280;48171;51.550;5.434;2023-03-12T01:57:15;101041.56;;;2.25;88.76
61018;BME280;48171;51.550;5.434;2023-03-12T01:59:44;101042.38;;;2.24;89.52
61018;BME280;48171;51.550;5.434;2023-03-12T02:02:13;101055.44;;;2.24;89.06
61018;BME280;48171;51.550;5.434;2023-03-12T02:04:40;101046.69;;;2.22;89.77
61018;BME280;48171;51.550;5.434;2023-03-12T02:07:10;101043.19;;;2.21;89.53
61018;BME280;48171;51.550;5.434;2023-03-12T02:09:42;101035.19;;;2.15;90.16
61018;BME280;48171;51.550;5.434;2023-03-12T02:12:09;101041.41;;;2.20;89.67
61018;BME280;48171;51.550;5.434;2023-03-12T02:14:35;101037.97;;;2.21;89.93
61018;BME280;48171;51.550;5.434;2023-03-12T02:17:00;101037.13;;;2.22;89.86
61018;BME280;48171;51.550;5.434;2023-03-12T02:19:56;101020.66;;;2.23;90.17
61018;BME280;48171;51.550;5.434;2023-03-12T02:22:24;101017.13;;;2.21;89.94
61018;BME280;48171;51.550;5.434;2023-03-12T02:25:03;101020.66;;;2.23;89.20
61018;BME280;48171;51.550;5.434;2023-03-12T02:27:32;101014.56;;;2.23;89.55
61018;BME280;48171;51.550;5.434;2023-03-12T02:29:59;101005.81;;;2.20;89.48
61018;BME280;48171;51.550;5.434;2023-03-12T02:32:27;101009.34;;;2.23;89.68
61018;BME280;48171;51.550;5.434;2023-03-12T02:34:55;101002.47;;;2.25;90.02
61018;BME280;48171;51.550;5.434;2023-03-12T02:37:21;101003.28;;;2.24;89.98
61018;BME280;48171;51.550;5.434;2023-03-12T02:39:52;101016.31;;;2.24;89.76
61018;BME280;48171;51.550;5.434;2023-03-12T02:42:21;101009.34;;;2.23;90.19
61018;BME280;48171;51.550;5.434;2023-03-12T02:44:46;101012.84;;;2.23;89.65
61018;BME280;48171;51.550;5.434;2023-03-12T02:47:12;101017.19;;;2.24;89.97
61018;BME280;48171;51.550;5.434;2023-03-12T02:49:37;101007.63;;;2.23;89.53
61018;BME280;48171;51.550;5.434;2023-03-12T02:52:03;101011.16;;;2.25;89.35
61018;BME280;48171;51.550;5.434;2023-03-12T02:54:29;101008.56;;;2.25;88.86
61018;BME280;48171;51.550;5.434;2023-03-12T02:56:54;101007.69;;;2.26;88.69
61018;BME280;48171;51.550;5.434;2023-03-12T02:59:21;100997.25;;;2.25;88.60
61018;BME280;48171;51.550;5.434;2023-03-12T03:01:51;100999.88;;;2.26;88.16
61018;BME280;48171;51.550;5.434;2023-03-12T03:04:16;100984.16;;;2.23;88.58
61018;BME280;48171;51.550;5.434;2023-03-12T03:06:42;100991.19;;;2.26;88.68
61018;BME280;48171;51.550;5.434;2023-03-12T03:09:08;100995.53;;;2.25;89.38
61018;BME280;48171;51.550;5.434;2023-03-12T03:11:33;100999.00;;;2.26;90.04
61018;BME280;48171;51.550;5.434;2023-03-12T03:13:59;100997.28;;;2.26;91.28
61018;BME280;48171;51.550;5.434;2023-03-12T03:16:24;100999.00;;;2.26;91.18
61018;BME280;48171;51.550;5.434;2023-03-12T03:18:50;100991.94;;;2.22;91.24
61018;BME280;48171;51.550;5.434;2023-03-12T03:21:15;100991.13;;;2.24;90.67
61018;BME280;48171;51.550;5.434;2023-03-12T03:23:46;100998.13;;;2.25;91.15
61018;BME280;48171;51.550;5.434;2023-03-12T03:26:11;100997.31;;;2.28;91.82
61018;BME280;48171;51.550;5.434;2023-03-12T03:28:37;100995.53;;;2.25;91.99
61018;BME280;48171;51.550;5.434;2023-03-12T03:31:02;100994.53;;;2.22;nan
61018;BME280;48171;51.550;5.434;2023-03-12T03:33:29;100994.53;;;2.22;92.89
61018;BME280;48171;51.550;5.434;2023-03-12T03:35:56;100996.41;;;2.26;93.38
61018;BME280;48171;51.550;5.434;2023-03-12T03:38:24;100988.53;;;2.24;93.85
61018;BME280;48171;51.550;5.434;2023-03-12T03:40:50;100982.44;;;2.24;94.41
61018;BME280;48171;51.550;5.434;2023-03-12T03:43:15;100974.63;;;2.24;94.34
61018;BME280;48171;51.550;5.434;2023-03-12T03:45:41;100975.50;;;2.24;94.50
61018;BME280;48171;51.550;5.434;2023-03-12T03:48:09;100976.41;;;2.25;95.02
61018;BME280;48171;51.550;5.434;2023-03-12T03:50:36;100968.66;;;2.28;94.50
61018;BME280;48171;51.550;5.434;2023-03-12T03:53:01;100953.88;;;2.28;94.71
61018;BME280;48171;51.550;5.434;2023-03-12T03:55:27;100947.91;;;2.31;94.99
61018;BME280;48171;51.550;5.434;2023-03-12T03:57:52;100940.06;;;2.31;94.77
61018;BME280;48171;51.550;5.434;2023-03-12T04:00:17;100928.78;;;2.30;94.83
61018;BME280;48171;51.550;5.434;2023-03-12T04:02:43;100948.88;;;2.34;94.94
61018;BME280;48171;51.550;5.434;2023-03-12T04:05:09;100938.34;;;2.31;94.66
61018;BME280;48171;51.550;5.434;2023-03-12T04:07:34;100948.06;;;2.37;94.68
61018;BME280;48171;51.550;5.434;2023-03-12T04:10:01;100939.38;;;2.36;94.52
61018;BME280;48171;51.550;5.434;2023-03-12T04:12:26;100929.72;;;2.34;94.93
61018;BME280;48171;51.550;5.434;2023-03-12T04:14:52;100923.75;;;2.38;95.12
61018;BME280;48171;51.550;5.434;2023-03-12T04:17:18;100913.38;;;2.39;95.29
61018;BME280;48171;51.550;5.434;2023-03-12T04:19:43;100909.00;;;2.38;96.29
61018;BME280;48171;51.550;5.434;2023-03-12T04:22:09;100908.16;;;2.39;96.23
61018;BME280;48171;51.550;5.434;2023-03-12T04:24:35;100911.63;;;2.40;95.78
61018;BME280;48171;51.550;5.434;2023-03-12T04:27:00;100898.56;;;2.38;95.35
61018;BME280;48171;51.550;5.434;2023-03-12T04:29:25;100889.91;;;2.39;95.63
61018;BME280;48171;51.550;5.434;2023-03-12T04:31:51;100889.91;;;2.39;95.93
61018;BME280;48171;51.550;5.434;2023-03-12T04:34:17;100881.19;;;2.39;95.90
61018;BME280;48171;51.550;5.434;2023-03-12T04:36:42;100879.41;;;2.36;96.18
61018;BME280;48171;51.550;5.434;2023-03-12T04:39:07;100880.28;;;2.37;96.40
61018;BME280;48171;51.550;5.434;2023-03-12T04:41:34;100880.31;;;2.38;96.13
61018;BME280;48171;51.550;5.434;2023-03-12T04:43:59;100876.00;;;2.39;96.02
61018;BME280;48171;51.550;5.434;2023-03-12T04:46:24;100879.41;;;2.38;95.40
61018;BME280;48171;51.550;5.434;2023-03-12T04:48:50;100883.81;;;2.39;95.74
61018;BME280;48171;51.550;5.434;2023-03-12T04:51:15;100887.28;;;2.39;95.69
61018;BME280;48171;51.550;5.434;2023-03-12T04:53:40;100881.19;;;2.39;95.37
61018;BME280;48171;51.550;5.434;2023-03-12T04:56:06;100876.03;;;2.40;94.87
61018;BME280;48171;51.550;5.434;2023-03-12T04:58:31;100873.44;;;2.42;95.05
61018;BME280;48171;51.550;5.434;2023-03-12T05:00:57;100871.75;;;2.43;95.30
61018;BME280;48171;51.550;5.434;2023-03-12T05:03:22;100863.00;;;2.42;95.05
61018;BME280;48171;51.550;5.434;2023-03-12T05:05:47;100856.06;;;2.41;95.24
61018;BME280;48171;51.550;5.434;2023-03-12T05:08:13;100852.53;;;2.39;95.52
61018;BME280;48171;51.550;5.434;2023-03-12T05:10:38;100846.53;;;2.43;95.30
61018;BME280;48171;51.550;5.434;2023-03-12T05:13:04;100837.00;;;2.44;95.74
61018;BME280;48171;51.550;5.434;2023-03-12T05:15:36;100830.03;;;2.43;95.42
61018;BME280;48171;51.550;5.434;2023-03-12T05:18:01;100830.97;;;2.46;95.94
61018;BME280;48171;51.550;5.434;2023-03-12T05:20:27;100829.22;;;2.45;96.23
61018;BME280;48171;51.550;5.434;2023-03-12T05:22:52;100836.19;;;2.46;96.82
61018;BME280;48171;51.550;5.434;2023-03-12T05:25:17;100838.81;;;2.48;96.91
61018;BME280;48171;51.550;5.434;2023-03-12T05:27:43;100833.63;;;2.48;97.34
61018;BME280;48171;51.550;5.434;2023-03-12T05:30:09;100828.41;;;2.48;98.94
61018;BME280;48171;51.550;5.434;2023-03-12T05:32:34;100825.75;;;2.46;99.64
61018;BME280;48171;51.550;5.434;2023-03-12T05:35:00;100824.00;;;2.45;100.00
61018;BME280;48171;51.550;5.434;2023-03-12T05:37:25;100823.13;;;2.46;100.00
61018;BME280;48171;51.550;5.434;2023-03-12T05:39:52;100816.06;;;2.42;100.00
61018;BME280;48171;51.550;5.434;2023-03-12T05:42:18;100826.56;;;2.44;100.00
61018;BME280;48171;51.550;5.434;2023-03-12T05:44:43;100828.25;;;2.42;100.00
61018;BME280;48171;51.550;5.434;2023-03-12T05:47:08;100821.34;;;2.44;100.00
61018;BME280;48171;51.550;5.434;2023-03-12T05:49:34;100829.22;;;2.45;100.00
61018;BME280;48171;51.550;5.434;2023-03-12T05:51:59;100822.31;;;2.47;100.00
61018;BME280;48171;51.550;5.434;2023-03-12T05:54:25;100824.91;;;2.47;100.00
61018;BME280;48171;51.550;5.434;2023-03-12T05:56:50;100815.38;;;2.48;100.00
61018;BME280;48171;51.550;5.434;2023-03-12T05:59:16;100816.22;;;2.48;100.00
61018;BME280;48171;51.550;5.434;2023-03-12T06:01:41;100820.63;;;2.49;100.00
61018;BME280;48171;51.550;5.434;2023-03-12T06:04:07;100810.09;;;2.46;100.00
61018;BME280;48171;51.550;5.434;2023-03-12T06:06:34;100811.94;;;2.49;100.00
61018;BME280;48171;51.550;5.434;2023-03-12T06:09:00;100821.50;;;2.50;100.00
61018;BME280;48171;51.550;5.434;2023-03-12T06:11:26;100837.25;;;2.53;100.00
61018;BME280;48171;51.550;5.434;2023-03-12T06:13:51;100804.72;;;2.38;100.00
61018;BME280;48171;51.550;5.434;2023-03-12T06:16:20;100840.63;;;2.50;100.00
61018;BME280;48171;51.550;5.434;2023-03-12T06:18:46;100831.97;;;2.51;100.00
61018;BME280;48171;51.550;5.434;2023-03-12T06:21:17;100834.59;;;2.51;100.00
61018;BME280;48171;51.550;5.434;2023-03-12T06:23:43;100839.84;;;2.54;100.00
61018;BME280;48171;51.550;5.434;2023-03-12T06:26:10;100846.75;;;2.52;100.00
61018;BME280;48171;51.550;5.434;2023-03-12T06:28:36;100832.03;;;2.54;100.00
61018;BME280;48171;51.550;5.434;2023-03-12T06:31:02;100826.03;;;2.57;100.00
61018;BME280;48171;51.550;5.434;2023-03-12T06:33:27;100821.66;;;2.56;100.00
61018;BME280;48171;51.550;5.434;2023-03-12T06:35:57;100819.16;;;2.60;100.00
61018;BME280;48171;51.550;5.434;2023-03-12T06:38:23;100815.75;;;2.63;100.00
61018;BME280;48171;51.550;5.434;2023-03-12T06:40:59;100809.63;;;2.61;100.00
61018;BME280;48171;51.550;5.434;2023-03-12T06:43:27;100817.56;;;2.66;100.00
61018;BME280;48171;51.550;5.434;2023-03-12T06:45:54;100809.69;;;2.64;100.00
61018;BME280;48171;51.550;5.434;2023-03-12T06:48:20;100806.19;;;2.64;100.00
61018;BME280;48171;51.550;5.434;2023-03-12T06:50:45;100792.16;;;2.58;100.00
61018;BME280;48171;51.550;5.434;2023-03-12T06:53:10;100794.13;;;2.67;100.00
61018;BME280;48171;51.550;5.434;2023-03-12T06:55:36;100786.25;;;2.66;100.00
61018;BME280;48171;51.550;5.434;2023-03-12T06:58:02;100788.94;;;2.69;100.00
61018;BME280;48171;51.550;5.434;2023-03-12T07:00:28;100790.69;;;2.70;100.00
61018;BME280;48171;51.550;5.434;2023-03-12T07:02:54;100781.13;;;2.70;100.00
61018;BME280;48171;51.550;5.434;2023-03-12T07:05:19;100774.22;;;2.72;100.00
61018;BME280;48171;51.550;5.434;2023-03-12T07:07:44;100779.47;;;2.74;100.00
61018;BME280;48171;51.550;5.434;2023-03-12T07:10:11;100784.66;;;2.72;100.00
61018;BME280;48171;51.550;5.434;2023-03-12T07:12:36;100777.75;;;2.73;100.00
61018;BME280;48171;51.550;5.434;2023-03-12T07:15:02;100776.88;;;2.74;100.00
61018;BME280;48171;51.550;5.434;2023-03-12T07:17:27;100783.88;;;2.75;100.00
61018;BME280;48171;51.550;5.434;2023-03-12T07:19:53;100776.88;;;2.74;100.00
61018;BME280;48171;51.550;5.434;2023-03-12T07:22:18;100776.97;;;2.77;100.00
61018;BME280;48171;51.550;5.434;2023-03-12T07:24:43;100776.97;;;2.78;100.00
61018;BME280;48171;51.550;5.434;2023-03-12T07:27:09;100788.41;;;2.84;100.00
61018;BME280;48171;51.550;5.434;2023-03-12T07:29:34;100782.31;;;2.83;100.00
61018;BME280;48171;51.550;5.434;2023-03-12T07:31:59;100789.38;;;2.87;100.00
61018;BME280;48171;51.550;5.434;2023-03-12T07:34:25;100785.88;;;2.87;100.00
61018;BME280;48171;51.550;5.434;2023-03-12T07:36:50;100791.13;;;2.88;100.00
61018;BME280;48171;51.550;5.434;2023-03-12T07:39:15;100786.78;;;2.89;100.00
61018;BME280;48171;51.550;5.434;2023-03-12T07:41:41;100796.38;;;2.90;100.00
61018;BME280;48171;51.550;5.434;2023-03-12T07:44:06;100791.22;;;2.93;100.00
61018;BME280;48171;51.550;5.434;2023-03-12T07:46:32;100793.00;;;2.94;100.00
61018;BME280;48171;51.550;5.434;2023-03-12T07:48:57;100792.22;;;2.98;100.00
61018;BME280;48171;51.550;5.434;2023-03-12T07:51:23;100796.56;;;2.97;100.00
61018;BME280;48171;51.550;5.434;2023-03-12T07:53:48;100787.97;;;3.02;100.00
61018;BME280;48171;51.550;5.434;2023-03-12T07:56:13;100787.22;;;3.07;100.00
61018;BME280;48171;51.550;5.434;2023-03-12T07:58:39;100796.03;;;3.12;100.00
61018;BME280;48171;51.550;5.434;2023-03-12T08:01:04;100796.13;;;3.17;100.00
61018;BME280;48171;51.550;5.434;2023-03-12T08:03:30;100793.59;;;3.20;100.00
61018;BME280;48171;51.550;5.434;2023-03-12T08:05:58;100793.63;;;3.22;100.00
61018;BME280;48171;51.550;5.434;2023-03-12T08:08:24;100794.53;;;3.24;100.00
61018;BME280;48171;51.550;5.434;2023-03-12T08:10:50;100783.28;;;3.26;100.00
61018;BME280;48171;51.550;5.434;2023-03-12T08:13:16;100779.97;;;3.33;100.00
61018;BME280;48171;51.550;5.434;2023-03-12T08:15:42;100772.19;;;3.36;100.00
61018;BME280;48171;51.550;5.434;2023-03-12T08:18:08;100780.16;;;3.43;100.00
61018;BME280;48171;51.550;5.434;2023-03-12T08:20:33;100787.28;;;3.50;100.00
61018;BME280;48171;51.550;5.434;2023-03-12T08:22:58;100775.03;;;3.49;100.00
61018;BME280;48171;51.550;5.434;2023-03-12T08:25:24;100780.47;;;3.59;100.00
61018;BME280;48171;51.550;5.434;2023-03-12T08:27:49;100786.69;;;3.65;100.00
61018;BME280;48171;51.550;5.434;2023-03-12T08:30:15;100792.84;;;3.67;100.00
61018;BME280;48171;51.550;5.434;2023-03-12T08:32:40;100789.47;;;3.72;100.00
61018;BME280;48171;51.550;5.434;2023-03-12T08:35:06;100796.56;;;3.78;100.00
61018;BME280;48171;51.550;5.434;2023-03-12T08:37:31;100792.28;;;3.83;100.00
61018;BME280;48171;51.550;5.434;2023-03-12T08:39:57;100793.97;;;3.81;100.00
61018;BME280;48171;51.550;5.434;2023-03-12T08:42:22;100801.09;;;3.90;100.00
61018;BME280;48171;51.550;5.434;2023-03-12T08:44:48;100801.22;;;3.94;100.00
61018;BME280;48171;51.550;5.434;2023-03-12T08:47:13;100806.56;;;4.00;100.00
61018;BME280;48171;51.550;5.434;2023-03-12T08:49:38;100813.63;;;4.05;100.00
61018;BME280;48171;51.550;5.434;2023-03-12T08:52:04;100812.00;;;4.11;100.00
61018;BME280;48171;51.550;5.434;2023-03-12T08:54:29;100810.31;;;4.15;100.00
61018;BME280;48171;51.550;5.434;2023-03-12T08:56:54;100807.75;;;4.16;100.00
61018;BME280;48171;51.550;5.434;2023-03-12T08:59:20;100819.22;;;4.26;100.00
61018;BME280;48171;51.550;5.434;2023-03-12T09:01:47;100828.13;;;4.34;100.00
61018;BME280;48171;51.550;5.434;2023-03-12T09:04:12;100823.00;;;4.40;100.00
61018;BME280;48171;51.550;5.434;2023-03-12T09:06:37;100819.53;;;4.43;100.00
61018;BME280;48171;51.550;5.434;2023-03-12T09:09:03;100812.63;;;4.48;100.00
61018;BME280;48171;51.550;5.434;2023-03-12T09:11:30;100814.44;;;4.52;100.00
61018;BME280;48171;51.550;5.434;2023-03-12T09:13:56;100818.16;;;4.64;100.00
61018;BME280;48171;51.550;5.434;2023-03-12T09:16:22;100822.69;;;4.74;100.00
61018;BME280;48171;51.550;5.434;2023-03-12T09:18:47;100813.28;;;4.85;100.00
61018;BME280;48171;51.550;5.434;2023-03-12T09:21:12;100818.63;;;4.94;100.00
61018;BME280;48171;51.550;5.434;2023-03-12T09:23:38;100806.63;;;5.07;100.00
61018;BME280;48171;51.550;5.434;2023-03-12T09:26:03;100819.84;;;5.16;100.00
61018;BME280;48171;51.550;5.434;2023-03-12T09:28:28;100808.63;;;5.27;100.00
61018;BME280;48171;51.550;5.434;2023-03-12T09:30:54;100807.03;;;5.36;100.00
61018;BME280;48171;51.550;5.434;2023-03-12T09:33:19;100811.56;;;5.51;100.00
61018;BME280;48171;51.550;5.434;2023-03-12T09:35:44;100810.84;;;5.60;100.00
61018;BME280;48171;51.550;5.434;2023-03-12T09:38:13;100824.94;;;5.71;100.00
61018;BME280;48171;51.550;5.434;2023-03-12T09:40:44;100810.19;;;5.79;100.00
61018;BME280;48171;51.550;5.434;2023-03-12T09:43:17;100811.97;;;5.84;100.00
61018;BME280;48171;51.550;5.434;2023-03-12T09:45:46;100819.13;;;5.94;100.00
61018;BME280;48171;51.550;5.434;2023-03-12T09:48:14;100817.47;;;6.00;100.00
61018;BME280;48171;51.550;5.434;2023-03-12T09:50:45;100831.59;;;6.13;100.00
61018;BME280;48171;51.550;5.434;2023-03-12T09:55:55;100847.47;;;6.24;100.00
61018;BME280;48171;51.550;5.434;2023-03-12T09:58:32;100841.38;;;6.30;100.00
61018;BME280;48171;51.550;5.434;2023-03-12T10:04:23;100851.16;;;6.43;100.00
61018;BME280;48171;51.550;5.434;2023-03-12T10:12:48;100846.97;;;6.65;100.00
61018;BME280;48171;51.550;5.434;2023-03-12T10:25:56;100835.13;;;7.13;100.00
61018;BME280;48171;51.550;5.434;2023-03-12T10:28:36;100840.34;;;7.15;100.00
61018;BME280;48171;51.550;5.434;2023-03-12T10:31:20;100843.88;;;7.17;100.00
61018;BME280;48171;51.550;5.434;2023-03-12T10:33:56;100843.03;;;7.19;100.00
61018;BME280;48171;51.550;5.434;2023-03-12T10:36:25;100841.28;;;7.20;100.00
61018;BME280;48171;51.550;5.434;2023-03-12T10:38:52;100836.94;;;7.27;100.00
61018;BME280;48171;51.550;5.434;2023-03-12T10:41:21;100842.28;;;7.37;100.00
61018;BME280;48171;51.550;5.434;2023-03-12T10:43:47;100842.28;;;7.45;100.00
61018;BME280;48171;51.550;5.434;2023-03-12T10:46:37;100840.63;;;7.56;100.00
61018;BME280;48171;51.550;5.434;2023-03-12T10:52:01;100839.81;;;7.71;100.00
61018;BME280;48171;51.550;5.434;2023-03-12T10:56:57;100829.31;;;7.84;100.00
61018;BME280;48171;51.550;5.434;2023-03-12T10:59:27;100837.28;;;7.90;100.00
61018;BME280;48171;51.550;5.434;2023-03-12T11:01:52;100834.66;;;7.99;100.00
61018;BME280;48171;51.550;5.434;2023-03-12T11:04:24;100841.69;;;7.98;100.00
61018;BME280;48171;51.550;5.434;2023-03-12T11:09:33;100838.19;;;8.06;100.00
61018;BME280;48171;51.550;5.434;2023-03-12T11:11:58;100834.69;;;8.05;100.00
61018;BME280;48171;51.550;5.434;2023-03-12T11:14:26;100849.63;;;8.18;100.00
61018;BME280;48171;51.550;5.434;2023-03-12T11:16:52;100840.88;;;8.27;100.00
61018;BME280;48171;51.550;5.434;2023-03-12T11:19:33;100849.69;;;8.32;100.00
61018;BME280;48171;51.550;5.434;2023-03-12T11:22:03;100854.94;;;8.32;100.00
61018;BME280;48171;51.550;5.434;2023-03-12T11:24:29;100855.81;;;8.33;100.00
61018;BME280;48171;51.550;5.434;2023-03-12T11:27:02;100859.34;;;8.36;100.00
61018;BME280;48171;51.550;5.434;2023-03-12T11:29:31;100858.47;;;8.40;100.00
61018;BME280;48171;51.550;5.434;2023-03-12T11:34:44;100843.56;;;8.46;100.00
61018;BME280;48171;51.550;5.434;2023-03-12T11:50:56;100859.41;;;8.59;100.00
61018;BME280;48171;51.550;5.434;2023-03-12T11:56:27;100849.78;;;8.83;100.00
61018;BME280;48171;51.550;5.434;2023-03-12T11:59:13;100841.88;;;8.95;100.00
61018;BME280;48171;51.550;5.434;2023-03-12T12:01:55;100846.25;;;9.07;100.00
61018;BME280;48171;51.550;5.434;2023-03-12T12:04:37;100840.09;;;9.11;100.00
61018;BME280;48171;51.550;5.434;2023-03-12T12:07:22;100827.78;;;9.21;100.00
61018;BME280;48171;51.550;5.434;2023-03-12T12:09:58;100822.50;;;9.33;100.00
61018;BME280;48171;51.550;5.434;2023-03-12T12:13:32;100814.53;;;9.46;100.00
61018;BME280;48171;51.550;5.434;2023-03-12T12:21:00;100817.06;;;9.78;100.00
61018;BME280;48171;51.550;5.434;2023-03-12T12:26:12;100810.84;;;9.91;100.00
61018;BME280;48171;51.550;5.434;2023-03-12T12:28:56;100802.91;;;9.96;100.00
61018;BME280;48171;51.550;5.434;2023-03-12T12:31:45;100807.25;;;10.05;100.00
61018;BME280;48171;51.550;5.434;2023-03-12T12:34:20;100788.75;;;10.09;100.00
61018;BME280;48171;51.550;5.434;2023-03-12T12:37:04;100785.19;;;10.15;100.00
61018;BME280;48171;51.550;5.434;2023-03-12T12:39:39;100775.50;;;10.20;100.00
61018;BME280;48171;51.550;5.434;2023-03-12T12:42:12;100775.47;;;10.21;100.00
61018;BME280;48171;51.550;5.434;2023-03-12T12:44:50;100777.22;;;10.21;100.00
61018;BME280;48171;51.550;5.434;2023-03-12T12:47:20;100776.38;;;10.16;100.00
61018;BME280;48171;51.550;5.434;2023-03-12T12:49:50;100774.66;;;10.07;100.00
61018;BME280;48171;51.550;5.434;2023-03-12T12:52:19;100778.19;;;10.09;100.00
61018;BME280;48171;51.550;5.434;2023-03-12T12:57:51;100765.88;;;10.04;100.00
61018;BME280;48171;51.550;5.434;2023-03-12T13:00:24;100765.06;;;9.98;100.00
61018;BME280;48171;51.550;5.434;2023-03-12T13:02:56;100751.03;;;9.90;100.00
61018;BME280;48171;51.550;5.434;2023-03-12T13:05:28;100753.66;;;9.87;100.00
61018;BME280;48171;51.550;5.434;2023-03-12T13:08:05;100752.81;;;9.84;100.00
61018;BME280;48171;51.550;5.434;2023-03-12T13:12:59;100764.25;;;9.82;100.00
61018;BME280;48171;51.550;5.434;2023-03-12T13:18:03;100758.13;;;9.82;100.00
61018;BME280;48171;51.550;5.434;2023-03-12T13:20:40;100748.47;;;9.78;100.00
61018;BME280;48171;51.550;5.434;2023-03-12T13:23:31;100752.84;;;9.79;100.00
61018;BME280;48171;51.550;5.434;2023-03-12T13:28:54;100769.56;;;9.78;100.00
61018;BME280;48171;51.550;5.434;2023-03-12T13:33:58;100761.63;;;9.82;100.00
61018;BME280;48171;51.550;5.434;2023-03-12T13:36:27;100752.81;;;9.90;100.00
61018;BME280;48171;51.550;5.434;2023-03-12T13:41:36;100748.28;;;10.06;100.00
61018;BME280;48171;51.550;5.434;2023-03-12T13:47:36;100736.75;;;10.17;100.00
61018;BME280;48171;51.550;5.434;2023-03-12T13:50:12;100722.59;;;10.29;100.00
61018;BME280;48171;51.550;5.434;2023-03-12T13:57:53;100757.69;;;10.50;97.43
61018;BME280;48171;51.550;5.434;2023-03-12T14:01:04;100752.44;;;10.47;96.99
61018;BME280;48171;51.550;5.434;2023-03-12T14:10:14;100767.31;;;10.57;94.33
61018;BME280;48171;51.550;5.434;2023-03-12T14:18:01;100765.38;;;10.76;92.40
61018;BME280;48171;51.550;5.434;2023-03-12T14:20:30;100771.53;;;10.76;92.18
61018;BME280;48171;51.550;5.434;2023-03-12T14:23:03;100764.56;;;10.71;93.28
61018;BME280;48171;51.550;5.434;2023-03-12T14:25:44;100790.03;;;10.78;93.15
61018;BME280;48171;51.550;5.434;2023-03-12T14:28:11;100786.47;;;10.82;93.87
61018;BME280;48171;51.550;5.434;2023-03-12T14:30:43;100783.81;;;10.84;91.54
61018;BME280;48171;51.550;5.434;2023-03-12T14:33:13;100793.53;;;10.83;92.51